Wetterdaten: Woche 08.05.17 - 14.05.17 (KW19)
Datum Zeit Temperatur Luftfeuchte Luftdruck Regen Wind Richtung Sonnenschein ET UV Solar Taupunkt Windchill Windben
08.05.2017 00:00 11,3 C 91 % 1015,1 hPa 0,0 l/m 0,3 km/h (0 Bft) W-NW 0,00 h 0,000 mm 0,0 UV-I 0 W/m 9,9 C 11,3 C 1,5 km/h (1 Bft)
08.05.2017 01:00 11,0 C 91 % 1015,2 hPa 0,0 l/m 0,7 km/h (0 Bft) W-NW 0,00 h 0,000 mm 0,0 UV-I 0 W/m 9,5 C 11,0 C 1,5 km/h (1 Bft)
08.05.2017 02:00 10,6 C 91 % 1015,0 hPa 0,0 l/m 0,0 km/h (0 Bft) N 0,00 h 0,000 mm 0,0 UV-I 0 W/m 9,3 C 10,6 C 0,3 km/h (0 Bft)
08.05.2017 03:00 10,2 C 91 % 1014,9 hPa 0,0 l/m 0,0 km/h (0 Bft) W-SW 0,00 h 0,000 mm 0,0 UV-I 0 W/m 8,9 C 10,2 C 0,7 km/h (0 Bft)
08.05.2017 04:00 9,4 C 87 % 1015,1 hPa 0,0 l/m 1,2 km/h (1 Bft) S-SO 0,00 h 0,000 mm 0,0 UV-I 0 W/m 7,3 C 9,4 C 5,9 km/h (2 Bft)
08.05.2017 05:00 8,2 C 85 % 1015,4 hPa 0,0 l/m 1,4 km/h (1 Bft) W 0,00 h 0,000 mm 0,0 UV-I 0 W/m 5,9 C 8,2 C 5,9 km/h (2 Bft)
08.05.2017 06:00 7,7 C 86 % 1015,7 hPa 0,0 l/m 3,3 km/h (1 Bft) W-NW 0,00 h 0,000 mm 0,0 UV-I 21 W/m 5,5 C 7,7 C 10,1 km/h (2 Bft)
08.05.2017 07:00 7,6 C 85 % 1016,2 hPa 0,0 l/m 2,0 km/h (1 Bft) W-NW 0,00 h 20,624 mm 0,0 UV-I 54 W/m 5,2 C 7,6 C 8,6 km/h (2 Bft)
08.05.2017 08:00 7,7 C 84 % 1016,6 hPa 0,0 l/m 1,6 km/h (1 Bft) W-SW 0,00 h 30,624 mm 0,0 UV-I 57 W/m 5,1 C 7,7 C 6,7 km/h (2 Bft)
08.05.2017 09:00 7,3 C 86 % 1017,0 hPa 0,0 l/m 1,8 km/h (1 Bft) W-NW 0,00 h 20,624 mm 0,2 UV-I 53 W/m 5,1 C 7,3 C 7,9 km/h (2 Bft)
08.05.2017 10:00 7,3 C 86 % 1017,3 hPa 0,0 l/m 1,3 km/h (1 Bft) W-NW 0,00 h 30,624 mm 0,6 UV-I 70 W/m 5,1 C 7,3 C 7,0 km/h (2 Bft)
08.05.2017 11:00 8,1 C 82 % 1017,4 hPa 0,0 l/m 0,4 km/h (0 Bft) W 0,00 h 20,624 mm 1,1 UV-I 135 W/m 5,3 C 8,1 C 2,2 km/h (1 Bft)
08.05.2017 12:00 8,7 C 80 % 1017,8 hPa 0,0 l/m 1,7 km/h (1 Bft) W-NW 0,00 h 18,480 mm 1,0 UV-I 107 W/m 5,4 C 8,7 C 7,3 km/h (2 Bft)
08.05.2017 13:00 8,8 C 81 % 1017,9 hPa 0,0 l/m 1,7 km/h (1 Bft) W-NW 0,00 h 18,480 mm 1,7 UV-I 191 W/m 5,8 C 8,8 C 8,7 km/h (2 Bft)
08.05.2017 14:00 9,4 C 74 % 1018,2 hPa 0,0 l/m 3,6 km/h (1 Bft) W-NW 0,00 h 6,336 mm 1,4 UV-I 158 W/m 5,0 C 9,4 C 11,7 km/h (2 Bft)
08.05.2017 15:00 9,8 C 71 % 1018,2 hPa 0,0 l/m 0,8 km/h (0 Bft) W-NW 0,00 h 6,336 mm 1,5 UV-I 204 W/m 4,8 C 9,8 C 5,6 km/h (1 Bft)
08.05.2017 16:00 10,2 C 68 % 1018,2 hPa 0,0 l/m 0,5 km/h (0 Bft) W-NW 0,00 h 4,192 mm 0,8 UV-I 114 W/m 4,6 C 10,2 C 4,7 km/h (1 Bft)
08.05.2017 17:00 9,8 C 73 % 1018,3 hPa 0,0 l/m 1,9 km/h (1 Bft) W-NW 0,00 h 18,480 mm 0,6 UV-I 108 W/m 5,1 C 9,8 C 7,9 km/h (2 Bft)
08.05.2017 18:00 9,6 C 75 % 1018,5 hPa 0,0 l/m 1,9 km/h (1 Bft) W-NW 0,00 h 18,480 mm 0,5 UV-I 100 W/m 5,4 C 9,6 C 8,9 km/h (2 Bft)
08.05.2017 19:00 9,3 C 77 % 1018,9 hPa 0,0 l/m 0,3 km/h (0 Bft) W-NW 0,00 h 18,480 mm 0,0 UV-I 36 W/m 5,6 C 9,3 C 5,1 km/h (1 Bft)
08.05.2017 20:00 8,7 C 83 % 1019,4 hPa 0,0 l/m 0,1 km/h (0 Bft) W-NW 0,00 h 20,624 mm 0,0 UV-I 10 W/m 5,9 C 8,7 C 1,3 km/h (1 Bft)
08.05.2017 21:00 7,9 C 88 % 1019,9 hPa 0,0 l/m 0,0 km/h (0 Bft) N 0,00 h 0,000 mm 0,0 UV-I 0 W/m 6,0 C 7,9 C 0,0 km/h (0 Bft)
08.05.2017 22:00 6,8 C 88 % 1020,4 hPa 0,0 l/m 0,0 km/h (0 Bft) N 0,00 h 0,000 mm 0,0 UV-I 0 W/m 5,0 C 6,8 C 0,0 km/h (0 Bft)
08.05.2017 23:00 5,6 C 91 % 1020,6 hPa 0,0 l/m 0,0 km/h (0 Bft) N 0,00 h 0,000 mm 0,0 UV-I 0 W/m 4,2 C 5,6 C 0,0 km/h (0 Bft)
09.05.2017 00:00 4,5 C 91 % 1020,8 hPa 0,0 l/m 0,0 km/h (0 Bft) N 0,00 h 0,000 mm 0,0 UV-I 0 W/m 3,2 C 4,5 C 0,0 km/h (0 Bft)
09.05.2017 01:00 3,6 C 92 % 1021,0 hPa 0,0 l/m 0,0 km/h (0 Bft) N 0,00 h 0,000 mm 0,0 UV-I 0 W/m 2,5 C 3,6 C 0,0 km/h (0 Bft)
09.05.2017 02:00 3,7 C 93 % 1020,9 hPa 0,0 l/m 0,0 km/h (0 Bft) N 0,00 h 0,000 mm 0,0 UV-I 0 W/m 2,7 C 3,7 C 0,0 km/h (0 Bft)
09.05.2017 03:00 3,1 C 93 % 1020,8 hPa 0,0 l/m 0,0 km/h (0 Bft) N 0,00 h 0,000 mm 0,0 UV-I 0 W/m 2,1 C 3,1 C 0,0 km/h (0 Bft)
09.05.2017 04:00 2,4 C 93 % 1020,7 hPa 0,0 l/m 0,0 km/h (0 Bft) N 0,00 h 0,000 mm 0,0 UV-I 0 W/m 1,4 C 2,4 C 0,0 km/h (0 Bft)
09.05.2017 05:00 1,8 C 93 % 1020,7 hPa 0,0 l/m 0,0 km/h (0 Bft) N 0,00 h 0,000 mm 0,0 UV-I 3 W/m 0,9 C 1,8 C 0,0 km/h (0 Bft)
09.05.2017 06:00 1,2 C 94 % 1020,7 hPa 200,0 l/m 0,0 km/h (0 Bft) N 0,00 h 0,000 mm 0,0 UV-I 25 W/m 0,3 C 1,2 C 0,0 km/h (0 Bft)
09.05.2017 07:00 1,7 C 94 % 1020,8 hPa 0,0 l/m 0,0 km/h (0 Bft) N 0,42 h 0,000 mm 0,6 UV-I 137 W/m 0,9 C 1,7 C 1,2 km/h (1 Bft)
09.05.2017 08:00 5,4 C 87 % 1020,8 hPa 0,0 l/m 0,3 km/h (0 Bft) N 0,42 h 18,480 mm 0,9 UV-I 215 W/m 3,2 C 5,4 C 4,2 km/h (1 Bft)
09.05.2017 09:00 8,4 C 67 % 1020,9 hPa 0,0 l/m 0,4 km/h (0 Bft) O-SO 0,00 h 10784,000 mm 1,3 UV-I 132 W/m 2,5 C 8,4 C 1,9 km/h (1 Bft)
09.05.2017 10:00 11,0 C 47 % 1020,5 hPa 0,0 l/m 1,9 km/h (1 Bft) N 1,00 h 0,000 mm 0,0 UV-I 0 W/m 0,1 C 11,0 C 8,0 km/h (2 Bft)
09.05.2017 11:00 11,8 C 45 % 1019,6 hPa 0,0 l/m 3,4 km/h (1 Bft) NO 1,17 h 9,440 mm 4,3 UV-I 736 W/m 0,2 C 11,5 C 9,4 km/h (2 Bft)
09.05.2017 12:00 11,7 C 42 % 1019,2 hPa 0,0 l/m 1,2 km/h (1 Bft) O-NO 0,33 h 2105,600 mm 4,3 UV-I 540 W/m -0,7 C 11,7 C 6,7 km/h (2 Bft)
09.05.2017 13:00 12,6 C 41 % 1018,6 hPa 0,0 l/m 1,3 km/h (1 Bft) NO 0,50 h 279,000 mm 4,6 UV-I 607 W/m -0,2 C 12,6 C 7,6 km/h (2 Bft)
09.05.2017 14:00 14,6 C 37 % 1018,0 hPa 0,0 l/m 0,5 km/h (0 Bft) NO 0,42 h 356,000 mm 3,9 UV-I 454 W/m -0,1 C 14,6 C 4,9 km/h (1 Bft)
09.05.2017 15:00 14,5 C 37 % 1017,2 hPa 0,0 l/m 1,3 km/h (1 Bft) NO 0,42 h 305,000 mm 3,1 UV-I 410 W/m -0,0 C 14,5 C 6,4 km/h (2 Bft)
09.05.2017 16:00 15,0 C 36 % 1016,3 hPa 0,0 l/m 2,9 km/h (1 Bft) NO 0,83 h 229,000 mm 3,1 UV-I 734 W/m -0,1 C 14,8 C 9,2 km/h (2 Bft)
09.05.2017 17:00 15,4 C 34 % 1015,8 hPa 0,0 l/m 3,2 km/h (1 Bft) W-NW 1,00 h 406,000 mm 1,8 UV-I 555 W/m -0,4 C 15,4 C 9,8 km/h (2 Bft)
09.05.2017 18:00 16,4 C 34 % 1015,2 hPa 0,0 l/m 0,1 km/h (0 Bft) W-NW 1,00 h 305,000 mm 0,9 UV-I 451 W/m 0,4 C 16,4 C 2,9 km/h (1 Bft)
09.05.2017 19:00 13,8 C 39 % 1014,8 hPa 0,0 l/m 1,5 km/h (1 Bft) O-NO 0,67 h 254,000 mm 0,4 UV-I 154 W/m -0,2 C 13,8 C 5,6 km/h (1 Bft)
09.05.2017 20:00 11,3 C 45 % 1014,8 hPa 0,0 l/m 2,5 km/h (1 Bft) O-NO 0,58 h 102,000 mm 0,0 UV-I 45 W/m -0,1 C 11,3 C 9,3 km/h (2 Bft)
09.05.2017 21:00 9,8 C 53 % 1014,9 hPa 0,0 l/m 0,0 km/h (0 Bft) N 0,00 h 51,000 mm 0,0 UV-I 0 W/m 0,7 C 9,8 C 0,4 km/h (0 Bft)
09.05.2017 22:00 7,0 C 64 % 1015,0 hPa 0,0 l/m 0,0 km/h (0 Bft) N 0,00 h 0,000 mm 0,0 UV-I 0 W/m 0,6 C 7,0 C 0,0 km/h (0 Bft)
09.05.2017 23:00 5,5 C 71 % 1014,9 hPa 0,0 l/m 0,0 km/h (0 Bft) N 0,00 h 25,000 mm 0,0 UV-I 0 W/m 0,6 C 5,5 C 0,0 km/h (0 Bft)
10.05.2017 00:00 3,9 C 77 % 1014,6 hPa 0,0 l/m 0,0 km/h (0 Bft) N 0,00 h 25,000 mm 0,0 UV-I 0 W/m 0,3 C 3,9 C 0,0 km/h (0 Bft)
10.05.2017 01:00 2,5 C 82 % 1014,2 hPa 0,0 l/m 0,0 km/h (0 Bft) N 0,00 h 0,000 mm 0,0 UV-I 0 W/m -0,3 C 2,5 C 0,0 km/h (0 Bft)
10.05.2017 02:00 1,5 C 84 % 1013,6 hPa 0,0 l/m 0,0 km/h (0 Bft) N 0,00 h 0,000 mm 0,0 UV-I 0 W/m -0,9 C 1,5 C 0,0 km/h (0 Bft)
10.05.2017 03:00 0,6 C 87 % 1013,1 hPa 0,0 l/m 0,0 km/h (0 Bft) N 0,00 h 0,000 mm 0,0 UV-I 0 W/m -1,4 C 0,6 C 0,0 km/h (0 Bft)
10.05.2017 04:00 0,0 C 88 % 1012,4 hPa 0,0 l/m 0,0 km/h (0 Bft) N 0,00 h 0,000 mm 0,0 UV-I 0 W/m -1,7 C 0,0 C 0,0 km/h (0 Bft)
10.05.2017 05:00 -0,4 C 90 % 1011,9 hPa 0,0 l/m 0,0 km/h (0 Bft) N 0,00 h 0,000 mm 0,0 UV-I 6 W/m -1,9 C -0,4 C 0,0 km/h (0 Bft)
10.05.2017 06:00 -0,6 C 90 % 1011,9 hPa 0,0 l/m 0,0 km/h (0 Bft) N 0,00 h 0,000 mm 0,0 UV-I 39 W/m -1,9 C -0,6 C 0,0 km/h (0 Bft)
10.05.2017 07:00 1,5 C 88 % 1011,9 hPa 0,0 l/m 0,0 km/h (0 Bft) N 0,50 h 0,000 mm 0,5 UV-I 147 W/m -0,3 C 1,5 C 0,0 km/h (0 Bft)
10.05.2017 08:00 4,8 C 78 % 1011,6 hPa 0,0 l/m 0,0 km/h (0 Bft) N 1,00 h 51,000 mm 1,0 UV-I 315 W/m 1,3 C 4,8 C 0,0 km/h (0 Bft)
10.05.2017 09:00 9,6 C 58 % 1011,2 hPa 0,0 l/m 0,1 km/h (0 Bft) N 1,00 h 127,000 mm 2,0 UV-I 481 W/m 1,7 C 9,6 C 0,7 km/h (0 Bft)
10.05.2017 10:00 12,6 C 48 % 1010,7 hPa 0,0 l/m 2,9 km/h (1 Bft) S-SW 1,00 h 229,000 mm 3,3 UV-I 636 W/m 2,0 C 12,6 C 8,6 km/h (2 Bft)
10.05.2017 11:00 14,1 C 42 % 1010,2 hPa 0,0 l/m 2,1 km/h (1 Bft) W 1,00 h 330,000 mm 4,6 UV-I 752 W/m 1,3 C 14,1 C 7,6 km/h (2 Bft)
10.05.2017 12:00 15,2 C 42 % 1009,6 hPa 0,0 l/m 2,9 km/h (1 Bft) W-SW 1,00 h 406,000 mm 5,5 UV-I 818 W/m 2,5 C 15,2 C 9,3 km/h (2 Bft)
10.05.2017 13:00 16,5 C 41 % 1009,0 hPa 0,0 l/m 1,7 km/h (1 Bft) O-NO 1,00 h 458,000 mm 5,8 UV-I 855 W/m 3,1 C 16,5 C 7,8 km/h (2 Bft)
10.05.2017 14:00 17,2 C 37 % 1008,3 hPa 0,0 l/m 4,4 km/h (1 Bft) O-NO 1,00 h 482,000 mm 5,3 UV-I 825 W/m 2,5 C 17,1 C 12,2 km/h (2 Bft)
10.05.2017 15:00 18,8 C 34 % 1007,6 hPa 0,0 l/m 2,3 km/h (1 Bft) S 1,00 h 483,000 mm 4,3 UV-I 761 W/m 2,5 C 18,8 C 8,7 km/h (2 Bft)
10.05.2017 16:00 18,7 C 33 % 1006,9 hPa 0,0 l/m 2,7 km/h (1 Bft) W-SW 1,00 h 457,000 mm 3,0 UV-I 649 W/m 1,9 C 18,7 C 10,1 km/h (2 Bft)
10.05.2017 17:00 18,9 C 33 % 1006,2 hPa 0,0 l/m 2,9 km/h (1 Bft) S-SW 1,00 h 406,000 mm 1,8 UV-I 513 W/m 2,3 C 18,9 C 10,2 km/h (2 Bft)
10.05.2017 18:00 19,5 C 33 % 1005,7 hPa 0,0 l/m 1,7 km/h (1 Bft) SW 1,00 h 331,000 mm 0,9 UV-I 355 W/m 2,6 C 19,5 C 5,8 km/h (1 Bft)
10.05.2017 19:00 18,9 C 34 % 1005,2 hPa 0,0 l/m 1,9 km/h (1 Bft) S-SW 1,00 h 228,000 mm 0,4 UV-I 185 W/m 2,5 C 18,9 C 6,6 km/h (2 Bft)
10.05.2017 20:00 16,9 C 39 % 1005,1 hPa 0,0 l/m 0,7 km/h (0 Bft) S 0,33 h 127,000 mm 0,0 UV-I 32 W/m 2,6 C 16,9 C 3,5 km/h (1 Bft)
10.05.2017 21:00 13,6 C 50 % 1005,2 hPa 0,0 l/m 0,0 km/h (0 Bft) N 0,00 h 26,000 mm 0,0 UV-I 0 W/m 3,3 C 13,6 C 0,0 km/h (0 Bft)
10.05.2017 22:00 10,6 C 61 % 1005,2 hPa 0,0 l/m 0,0 km/h (0 Bft) N 0,00 h 0,000 mm 0,0 UV-I 0 W/m 3,3 C 10,6 C 0,0 km/h (0 Bft)
10.05.2017 23:00 8,5 C 69 % 1005,2 hPa 0,0 l/m 0,0 km/h (0 Bft) N 0,00 h 25,000 mm 0,0 UV-I 0 W/m 3,2 C 8,5 C 0,0 km/h (0 Bft)
11.05.2017 00:00 6,6 C 76 % 1005,3 hPa 0,0 l/m 0,0 km/h (0 Bft) N 0,00 h 0,000 mm 0,0 UV-I 0 W/m 2,7 C 6,6 C 0,0 km/h (0 Bft)
11.05.2017 01:00 5,5 C 79 % 1005,2 hPa 0,0 l/m 0,0 km/h (0 Bft) N 0,00 h 25,000 mm 0,0 UV-I 0 W/m 2,2 C 5,5 C 0,0 km/h (0 Bft)
11.05.2017 02:00 4,5 C 82 % 1004,9 hPa 0,0 l/m 0,0 km/h (0 Bft) N 0,00 h 0,000 mm 0,0 UV-I 0 W/m 1,7 C 4,5 C 0,0 km/h (0 Bft)
11.05.2017 03:00 3,4 C 85 % 1004,6 hPa 0,0 l/m 0,0 km/h (0 Bft) N 0,00 h 0,000 mm 0,0 UV-I 0 W/m 1,1 C 3,4 C 0,0 km/h (0 Bft)
11.05.2017 04:00 2,7 C 87 % 1004,0 hPa 0,0 l/m 0,0 km/h (0 Bft) N 0,00 h 0,000 mm 0,0 UV-I 0 W/m 0,7 C 2,7 C 0,0 km/h (0 Bft)
11.05.2017 05:00 2,2 C 88 % 1003,5 hPa 0,0 l/m 0,0 km/h (0 Bft) N 0,00 h 0,000 mm 0,0 UV-I 7 W/m 0,5 C 2,2 C 0,0 km/h (0 Bft)
11.05.2017 06:00 2,2 C 90 % 1003,1 hPa 0,0 l/m 0,0 km/h (0 Bft) N 0,00 h 0,000 mm 0,0 UV-I 42 W/m 0,7 C 2,2 C 0,0 km/h (0 Bft)
11.05.2017 07:00 4,9 C 85 % 1002,9 hPa 0,0 l/m 0,0 km/h (0 Bft) N 0,75 h 26,000 mm 0,5 UV-I 159 W/m 2,5 C 4,9 C 0,0 km/h (0 Bft)
11.05.2017 08:00 10,0 C 72 % 1002,7 hPa 0,0 l/m 1,7 km/h (1 Bft) O-NO 1,00 h 76,000 mm 1,0 UV-I 325 W/m 5,1 C 10,0 C 3,9 km/h (1 Bft)
11.05.2017 09:00 13,9 C 59 % 1002,4 hPa 0,0 l/m 3,1 km/h (1 Bft) O-NO 0,83 h 152,000 mm 1,7 UV-I 396 W/m 6,1 C 13,9 C 9,0 km/h (2 Bft)
11.05.2017 10:00 16,4 C 55 % 1002,1 hPa 0,0 l/m 3,7 km/h (1 Bft) O-NO 1,00 h 229,000 mm 2,8 UV-I 538 W/m 7,3 C 16,3 C 10,2 km/h (2 Bft)
11.05.2017 11:00 17,9 C 52 % 1001,8 hPa 0,0 l/m 4,6 km/h (1 Bft) O 0,42 h 305,000 mm 2,4 UV-I 341 W/m 7,9 C 17,8 C 11,4 km/h (2 Bft)
11.05.2017 12:00 16,8 C 59 % 1001,4 hPa 0,0 l/m 6,2 km/h (2 Bft) O 0,42 h 203,000 mm 2,7 UV-I 374 W/m 8,8 C 16,4 C 11,3 km/h (2 Bft)
11.05.2017 13:00 18,3 C 54 % 1000,8 hPa 0,0 l/m 9,9 km/h (2 Bft) O-SO 0,83 h 279,000 mm 4,7 UV-I 690 W/m 8,8 C 16,9 C 16,8 km/h (3 Bft)
11.05.2017 14:00 19,8 C 51 % 1000,1 hPa 0,0 l/m 9,7 km/h (2 Bft) O 0,75 h 432,000 mm 4,6 UV-I 715 W/m 9,4 C 18,5 C 18,6 km/h (3 Bft)
11.05.2017 15:00 20,7 C 48 % 999,6 hPa 0,0 l/m 9,0 km/h (2 Bft) O-SO 0,25 h 483,000 mm 2,7 UV-I 425 W/m 9,2 C 19,7 C 18,5 km/h (3 Bft)
11.05.2017 16:00 20,0 C 48 % 999,3 hPa 0,0 l/m 10,6 km/h (2 Bft) O-SO 0,42 h 305,000 mm 1,9 UV-I 347 W/m 8,6 C 18,5 C 21,0 km/h (4 Bft)
11.05.2017 17:00 20,0 C 50 % 998,8 hPa 0,0 l/m 5,9 km/h (2 Bft) O-NO 0,33 h 304,000 mm 1,2 UV-I 276 W/m 9,1 C 19,8 C 14,6 km/h (3 Bft)
11.05.2017 18:00 20,4 C 50 % 998,4 hPa 0,0 l/m 5,3 km/h (1 Bft) O-SO 0,83 h 204,000 mm 0,7 UV-I 239 W/m 9,7 C 20,2 C 12,8 km/h (3 Bft)
11.05.2017 19:00 19,8 C 52 % 998,1 hPa 0,0 l/m 1,2 km/h (1 Bft) O 0,00 h 177,000 mm 0,0 UV-I 74 W/m 9,6 C 19,8 C 5,9 km/h (2 Bft)
11.05.2017 20:00 18,9 C 57 % 998,0 hPa 0,0 l/m 0,0 km/h (0 Bft) N 0,00 h 51,000 mm 0,0 UV-I 18 W/m 10,0 C 18,9 C 0,0 km/h (0 Bft)
11.05.2017 21:00 17,1 C 64 % 998,6 hPa 0,0 l/m 0,0 km/h (0 Bft) N 0,00 h 26,000 mm 0,0 UV-I 0 W/m 10,2 C 17,1 C 0,0 km/h (0 Bft)
11.05.2017 22:00 15,7 C 71 % 999,1 hPa 0,0 l/m 0,0 km/h (0 Bft) N 0,00 h 0,000 mm 0,0 UV-I 0 W/m 10,5 C 15,7 C 0,0 km/h (0 Bft)
11.05.2017 23:00 15,0 C 76 % 999,2 hPa 0,0 l/m 0,0 km/h (0 Bft) N 0,00 h 25,000 mm 0,0 UV-I 0 W/m 10,8 C 15,0 C 0,0 km/h (0 Bft)
12.05.2017 00:00 13,8 C 85 % 999,7 hPa 1800,0 l/m 0,0 km/h (0 Bft) N 0,00 h 0,000 mm 0,0 UV-I 0 W/m 11,3 C 13,8 C 0,0 km/h (0 Bft)
12.05.2017 01:00 12,8 C 90 % 999,8 hPa 200,0 l/m 0,0 km/h (0 Bft) N 0,00 h 0,000 mm 0,0 UV-I 0 W/m 11,3 C 12,8 C 0,0 km/h (0 Bft)
12.05.2017 02:00 12,5 C 92 % 1000,0 hPa 0,0 l/m 0,1 km/h (0 Bft) N 0,00 h 0,000 mm 0,0 UV-I 0 W/m 11,2 C 12,5 C 0,7 km/h (0 Bft)
12.05.2017 03:00 12,2 C 92 % 1000,1 hPa 200,0 l/m 0,0 km/h (0 Bft) N 0,00 h 0,000 mm 0,0 UV-I 0 W/m 11,0 C 12,2 C 0,0 km/h (0 Bft)
12.05.2017 04:00 12,0 C 93 % 1000,2 hPa 0,0 l/m 0,0 km/h (0 Bft) N 0,00 h 0,000 mm 0,0 UV-I 0 W/m 10,9 C 12,0 C 0,0 km/h (0 Bft)
12.05.2017 05:00 11,6 C 93 % 1000,2 hPa 0,0 l/m 0,0 km/h (0 Bft) N 0,00 h 0,000 mm 0,0 UV-I 0 W/m 10,5 C 11,6 C 0,0 km/h (0 Bft)
12.05.2017 06:00 11,5 C 93 % 1000,6 hPa 200,0 l/m 0,0 km/h (0 Bft) N 0,00 h 0,000 mm 0,0 UV-I 9 W/m 10,5 C 11,5 C 0,0 km/h (0 Bft)
12.05.2017 07:00 11,7 C 94 % 1001,1 hPa 1200,0 l/m 0,0 km/h (0 Bft) N 0,00 h 0,000 mm 0,0 UV-I 20 W/m 10,8 C 11,7 C 0,0 km/h (0 Bft)
12.05.2017 08:00 12,0 C 94 % 1001,6 hPa 600,0 l/m 0,0 km/h (0 Bft) N 0,00 h 0,000 mm 0,5 UV-I 39 W/m 11,1 C 12,0 C 0,0 km/h (0 Bft)
12.05.2017 09:00 12,7 C 94 % 1002,1 hPa 200,0 l/m 0,0 km/h (0 Bft) N 0,00 h 25,000 mm 0,7 UV-I 101 W/m 11,7 C 12,7 C 0,4 km/h (0 Bft)
12.05.2017 10:00 13,1 C 93 % 1002,5 hPa 0,0 l/m 0,3 km/h (0 Bft) N 0,00 h 51,000 mm 0,8 UV-I 107 W/m 12,0 C 13,1 C 2,1 km/h (1 Bft)
12.05.2017 11:00 13,9 C 91 % 1002,8 hPa 0,0 l/m 0,0 km/h (0 Bft) N 0,08 h 51,000 mm 1,5 UV-I 183 W/m 12,5 C 13,9 C 0,1 km/h (0 Bft)
12.05.2017 12:00 15,7 C 86 % 1002,9 hPa 0,0 l/m 0,6 km/h (0 Bft) NO 0,25 h 102,000 mm 3,0 UV-I 385 W/m 13,5 C 15,7 C 3,5 km/h (1 Bft)
12.05.2017 13:00 17,6 C 76 % 1002,9 hPa 0,0 l/m 1,8 km/h (1 Bft) NO 0,67 h 203,000 mm 4,6 UV-I 631 W/m 13,4 C 17,6 C 6,6 km/h (2 Bft)
12.05.2017 14:00 19,3 C 66 % 1002,8 hPa 0,0 l/m 1,9 km/h (1 Bft) S-SW 0,50 h 355,000 mm 3,8 UV-I 498 W/m 12,8 C 19,3 C 7,9 km/h (2 Bft)
12.05.2017 15:00 19,7 C 61 % 1002,7 hPa 0,0 l/m 1,4 km/h (1 Bft) S 0,33 h 305,000 mm 2,8 UV-I 371 W/m 11,8 C 19,7 C 5,8 km/h (1 Bft)
12.05.2017 16:00 19,4 C 63 % 1002,4 hPa 0,0 l/m 4,6 km/h (1 Bft) SO 0,42 h 229,000 mm 1,8 UV-I 311 W/m 12,2 C 19,3 C 11,8 km/h (2 Bft)
12.05.2017 17:00 19,0 C 65 % 1002,5 hPa 0,0 l/m 4,8 km/h (1 Bft) O 0,00 h 203,000 mm 1,1 UV-I 160 W/m 12,3 C 18,8 C 10,2 km/h (2 Bft)
12.05.2017 18:00 17,2 C 72 % 1003,2 hPa 400,0 l/m 3,1 km/h (1 Bft) W-NW 0,00 h 127,000 mm 0,0 UV-I 16 W/m 11,9 C 17,1 C 10,2 km/h (2 Bft)
12.05.2017 19:00 13,5 C 89 % 1004,1 hPa 3000,0 l/m 0,3 km/h (0 Bft) O-NO 0,00 h 25,000 mm 0,0 UV-I 22 W/m 11,8 C 13,5 C 2,8 km/h (1 Bft)
12.05.2017 20:00 13,0 C 91 % 1004,3 hPa 200,0 l/m 0,0 km/h (0 Bft) N 0,08 h 26,000 mm 0,0 UV-I 32 W/m 11,6 C 13,0 C 0,0 km/h (0 Bft)
12.05.2017 21:00 12,2 C 92 % 1005,2 hPa 0,0 l/m 0,0 km/h (0 Bft) N 0,00 h 25,000 mm 0,0 UV-I 0 W/m 10,9 C 12,2 C 0,1 km/h (0 Bft)
12.05.2017 22:00 12,0 C 93 % 1005,9 hPa 0,0 l/m 0,0 km/h (0 Bft) N 0,00 h 0,000 mm 0,0 UV-I 0 W/m 10,8 C 12,0 C 0,0 km/h (0 Bft)
12.05.2017 23:00 11,3 C 93 % 1006,3 hPa 200,0 l/m 0,0 km/h (0 Bft) N 0,00 h 0,000 mm 0,0 UV-I 0 W/m 10,2 C 11,3 C 0,0 km/h (0 Bft)
13.05.2017 00:00 10,8 C 94 % 1006,7 hPa 0,0 l/m 0,0 km/h (0 Bft) N 0,00 h 0,000 mm 0,0 UV-I 0 W/m 9,8 C 10,8 C 0,0 km/h (0 Bft)
13.05.2017 01:00 10,4 C 94 % 1006,9 hPa 0,0 l/m 0,0 km/h (0 Bft) N 0,00 h 0,000 mm 0,0 UV-I 0 W/m 9,4 C 10,4 C 0,0 km/h (0 Bft)
13.05.2017 02:00 10,0 C 94 % 1007,0 hPa 0,0 l/m 0,0 km/h (0 Bft) N 0,00 h 0,000 mm 0,0 UV-I 0 W/m 9,1 C 10,0 C 0,0 km/h (0 Bft)
13.05.2017 03:00 9,5 C 94 % 1007,3 hPa 0,0 l/m 0,0 km/h (0 Bft) N 0,00 h 0,000 mm 0,0 UV-I 0 W/m 8,6 C 9,5 C 0,0 km/h (0 Bft)
13.05.2017 04:00 8,9 C 94 % 1007,8 hPa 0,0 l/m 0,0 km/h (0 Bft) N 0,00 h 0,000 mm 0,0 UV-I 0 W/m 8,0 C 8,9 C 0,0 km/h (0 Bft)
13.05.2017 05:00 8,5 C 94 % 1008,1 hPa 0,0 l/m 0,0 km/h (0 Bft) N 0,00 h 0,000 mm 0,0 UV-I 2 W/m 7,6 C 8,5 C 0,0 km/h (0 Bft)
13.05.2017 06:00 8,6 C 95 % 1008,5 hPa 0,0 l/m 0,0 km/h (0 Bft) N 0,00 h 0,000 mm 0,0 UV-I 35 W/m 7,8 C 8,6 C 0,0 km/h (0 Bft)
13.05.2017 07:00 9,6 C 95 % 1009,2 hPa 0,0 l/m 0,0 km/h (0 Bft) N 0,00 h 25,000 mm 0,5 UV-I 104 W/m 8,8 C 9,6 C 0,1 km/h (0 Bft)
13.05.2017 08:00 12,0 C 95 % 1009,7 hPa 0,0 l/m 0,0 km/h (0 Bft) N 0,75 h 51,000 mm 1,0 UV-I 328 W/m 11,2 C 12,0 C 0,0 km/h (0 Bft)
13.05.2017 09:00 15,4 C 89 % 1010,3 hPa 0,0 l/m 0,3 km/h (0 Bft) W 0,58 h 153,000 mm 1,6 UV-I 351 W/m 13,6 C 15,4 C 1,1 km/h (0 Bft)
13.05.2017 10:00 16,5 C 84 % 1010,9 hPa 0,0 l/m 0,2 km/h (0 Bft) N 0,17 h 177,000 mm 2,3 UV-I 341 W/m 13,9 C 16,5 C 1,6 km/h (1 Bft)
13.05.2017 11:00 18,7 C 74 % 1011,2 hPa 0,0 l/m 0,9 km/h (0 Bft) SO 0,50 h 204,000 mm 3,4 UV-I 468 W/m 13,9 C 18,7 C 3,7 km/h (1 Bft)
13.05.2017 12:00 20,5 C 60 % 1011,1 hPa 0,0 l/m 2,7 km/h (1 Bft) W-SW 0,75 h 279,000 mm 5,2 UV-I 737 W/m 12,4 C 20,5 C 10,1 km/h (2 Bft)
13.05.2017 13:00 21,0 C 52 % 1011,0 hPa 0,0 l/m 7,3 km/h (2 Bft) W 0,75 h 457,000 mm 5,3 UV-I 700 W/m 10,7 C 20,4 C 14,5 km/h (3 Bft)
13.05.2017 14:00 21,5 C 51 % 1011,3 hPa 0,0 l/m 5,8 km/h (2 Bft) W-SW 0,58 h 483,000 mm 5,1 UV-I 638 W/m 10,8 C 21,2 C 14,4 km/h (3 Bft)
13.05.2017 15:00 20,5 C 55 % 1011,5 hPa 0,0 l/m 5,4 km/h (1 Bft) W-NW 0,42 h 406,000 mm 3,2 UV-I 478 W/m 11,1 C 20,2 C 14,1 km/h (3 Bft)
13.05.2017 16:00 22,6 C 50 % 1011,3 hPa 0,0 l/m 2,2 km/h (1 Bft) SW 1,00 h 330,000 mm 3,4 UV-I 695 W/m 11,6 C 22,6 C 9,1 km/h (2 Bft)
13.05.2017 17:00 21,7 C 55 % 1011,5 hPa 0,0 l/m 2,3 km/h (1 Bft) S 0,50 h 407,000 mm 1,4 UV-I 296 W/m 12,1 C 21,7 C 8,7 km/h (2 Bft)
13.05.2017 18:00 21,7 C 52 % 1011,7 hPa 0,0 l/m 1,4 km/h (1 Bft) O-NO 0,50 h 203,000 mm 0,7 UV-I 198 W/m 11,5 C 21,7 C 4,8 km/h (1 Bft)
13.05.2017 19:00 22,2 C 51 % 1012,0 hPa 0,0 l/m 0,2 km/h (0 Bft) NW 0,75 h 127,000 mm 0,5 UV-I 169 W/m 11,5 C 22,2 C 2,0 km/h (1 Bft)
13.05.2017 20:00 19,7 C 58 % 1012,6 hPa 0,0 l/m 0,0 km/h (0 Bft) N 0,08 h 102,000 mm 0,0 UV-I 26 W/m 11,2 C 19,7 C 0,0 km/h (0 Bft)
13.05.2017 21:00 17,3 C 69 % 1013,7 hPa 0,0 l/m 0,0 km/h (0 Bft) N 0,00 h 25,000 mm 0,0 UV-I 0 W/m 11,5 C 17,3 C 0,0 km/h (0 Bft)
13.05.2017 22:00 15,2 C 76 % 1014,3 hPa 0,0 l/m 0,0 km/h (0 Bft) N 0,00 h 0,000 mm 0,0 UV-I 0 W/m 10,9 C 15,2 C 0,0 km/h (0 Bft)
13.05.2017 23:00 13,9 C 82 % 1014,8 hPa 0,0 l/m 0,0 km/h (0 Bft) N 0,00 h 25,000 mm 0,0 UV-I 0 W/m 10,8 C 13,9 C 0,0 km/h (0 Bft)
14.05.2017 00:00 13,5 C 84 % 1015,4 hPa 0,0 l/m 0,1 km/h (0 Bft) N 0,00 h 0,000 mm 0,0 UV-I 0 W/m 10,8 C 13,5 C 0,8 km/h (0 Bft)
14.05.2017 01:00 13,8 C 83 % 1015,9 hPa 0,0 l/m 0,5 km/h (0 Bft) W 0,00 h 0,000 mm 0,0 UV-I 0 W/m 11,1 C 13,8 C 2,1 km/h (1 Bft)
14.05.2017 02:00 13,8 C 85 % 1016,3 hPa 0,0 l/m 0,2 km/h (0 Bft) N 0,00 h 25,000 mm 0,0 UV-I 0 W/m 11,2 C 13,8 C 1,9 km/h (1 Bft)
14.05.2017 03:00 13,6 C 86 % 1016,7 hPa 400,0 l/m 0,8 km/h (0 Bft) W 0,00 h 0,000 mm 0,0 UV-I 0 W/m 11,3 C 13,6 C 3,2 km/h (1 Bft)
14.05.2017 04:00 13,0 C 91 % 1017,4 hPa 600,0 l/m 0,0 km/h (0 Bft) N 0,00 h 0,000 mm 0,0 UV-I 0 W/m 11,6 C 13,0 C 0,1 km/h (0 Bft)
14.05.2017 05:00 12,6 C 92 % 1017,6 hPa 0,0 l/m 0,0 km/h (0 Bft) N 0,00 h 0,000 mm 0,0 UV-I 0 W/m 11,4 C 12,6 C 0,0 km/h (0 Bft)
14.05.2017 06:00 12,4 C 93 % 1018,2 hPa 0,0 l/m 0,0 km/h (0 Bft) N 0,00 h 0,000 mm 0,0 UV-I 23 W/m 11,3 C 12,4 C 0,0 km/h (0 Bft)
14.05.2017 07:00 12,8 C 93 % 1018,8 hPa 0,0 l/m 0,0 km/h (0 Bft) N 0,00 h 26,000 mm 0,0 UV-I 62 W/m 11,7 C 12,8 C 0,1 km/h (0 Bft)
14.05.2017 08:00 13,5 C 93 % 1019,4 hPa 0,0 l/m 0,0 km/h (0 Bft) N 0,33 h 25,000 mm 0,9 UV-I 226 W/m 12,3 C 13,5 C 0,0 km/h (0 Bft)
14.05.2017 09:00 16,8 C 80 % 1019,7 hPa 0,0 l/m 1,1 km/h (1 Bft) O-NO 1,00 h 127,000 mm 2,1 UV-I 485 W/m 13,4 C 16,8 C 2,3 km/h (1 Bft)
14.05.2017 10:00 18,7 C 63 % 1020,2 hPa 0,0 l/m 1,2 km/h (1 Bft) S 0,50 h 280,000 mm 2,1 UV-I 375 W/m 11,6 C 18,7 C 5,7 km/h (1 Bft)
14.05.2017 11:00 19,3 C 62 % 1020,4 hPa 0,0 l/m 0,5 km/h (0 Bft) SO 0,08 h 203,000 mm 2,4 UV-I 266 W/m 11,8 C 19,3 C 2,8 km/h (1 Bft)
14.05.2017 12:00 18,9 C 58 % 1020,4 hPa 0,0 l/m 3,5 km/h (1 Bft) S-SW 0,00 h 178,000 mm 2,2 UV-I 237 W/m 10,5 C 18,8 C 9,0 km/h (2 Bft)
14.05.2017 13:00 19,3 C 56 % 1020,7 hPa 0,0 l/m 5,8 km/h (2 Bft) W-NW 0,25 h 177,000 mm 3,4 UV-I 393 W/m 10,3 C 18,6 C 14,9 km/h (3 Bft)
14.05.2017 14:00 16,7 C 65 % 1021,5 hPa 200,0 l/m 5,2 km/h (1 Bft) W 0,08 h 280,000 mm 2,6 UV-I 300 W/m 9,9 C 16,2 C 13,5 km/h (3 Bft)
14.05.2017 15:00 18,2 C 65 % 1021,2 hPa 0,0 l/m 1,7 km/h (1 Bft) S 0,83 h 203,000 mm 3,7 UV-I 570 W/m 11,4 C 18,2 C 7,2 km/h (2 Bft)
14.05.2017 16:00 20,6 C 54 % 1021,0 hPa 0,0 l/m 2,2 km/h (1 Bft) S-SW 0,75 h 330,000 mm 2,9 UV-I 562 W/m 10,8 C 20,6 C 9,7 km/h (2 Bft)
14.05.2017 17:00 19,2 C 62 % 1020,9 hPa 0,0 l/m 3,7 km/h (1 Bft) S-SO 0,33 h 330,000 mm 1,1 UV-I 240 W/m 11,6 C 19,2 C 11,1 km/h (2 Bft)
14.05.2017 18:00 18,4 C 66 % 1021,3 hPa 1200,0 l/m 4,5 km/h (1 Bft) S 0,17 h 178,000 mm 0,7 UV-I 96 W/m 11,9 C 18,1 C 13,3 km/h (3 Bft)
14.05.2017 19:00 13,6 C 90 % 1022,1 hPa 800,0 l/m 0,0 km/h (0 Bft) N 0,42 h 76,000 mm 0,0 UV-I 106 W/m 12,0 C 13,6 C 0,5 km/h (0 Bft)
14.05.2017 20:00 13,8 C 92 % 1022,9 hPa 200,0 l/m 0,5 km/h (0 Bft) W-NW 0,25 h 51,000 mm 0,0 UV-I 37 W/m 12,5 C 13,8 C 1,9 km/h (1 Bft)
14.05.2017 21:00 12,7 C 92 % 1023,8 hPa 1400,0 l/m 0,0 km/h (0 Bft) N 0,00 h 26,000 mm 0,0 UV-I 0 W/m 11,5 C 12,7 C 0,1 km/h (0 Bft)
14.05.2017 22:00 11,9 C 93 % 1024,3 hPa 200,0 l/m 0,0 km/h (0 Bft) W-SW 0,00 h 0,000 mm 0,0 UV-I 0 W/m 10,7 C 11,9 C 0,0 km/h (0 Bft)
14.05.2017 23:00 11,9 C 93 % 1024,8 hPa 0,0 l/m 0,8 km/h (0 Bft) W 0,00 h 0,000 mm 0,0 UV-I 0 W/m 10,8 C 11,9 C 3,6 km/h (1 Bft)
Min-Datum _ 10.05.17 10.05.17 11.05.17 - 08.05.17 - - - - - 10.05.17 10.05.17 08.05.17
_ Min-Zeit 06:30 16:00 19:45 - 00:00 - - - - - 06:15 06:15 00:00
Minimum _ -0,9 C 29 % 997,9 hPa - 0,0 km/h (0 Bft) - - - - - -2,2 C -0,8 C 0,0 km/h (0 Bft)
Max-Datum _ 13.05.17 09.05.17 14.05.17 12.05.17 14.05.17 - 09.05.17 09.05.17 13.05.17 13.05.17 14.05.17 13.05.17 14.05.17
_ Max-Zeit 16:45 08:10 23:20 19:00 13:50 - 10:35 09:05 13:35 13:35 09:50 16:45 13:45
Maximum _ 23,6 C 95 % 1025,2 hPa 3000,0 l/m 17,7 km/h
W-NW (3 Bft)
- 1,00 h 2696,000 mm 7,1 UV-I 1157 W/m 14,7 C 23,6 C 38,6 km/h
W (5 Bft)
Durchschnitt _ 12,3 C 73 % 1011,4 hPa #13400,0 l/m 1,3 km/h (1 Bft) W-NW #44:05 h #30671,529 mm 2,2 UV-I 291 W/m 6,9 C 12,2 C 4,2 km/h (1 Bft)